createdAt,value
2018-09-30T00:00:10.057Z,2.00
2018-09-30T00:02:41.490Z,2.20
2018-09-30T00:05:11.583Z,2.43
2018-09-30T00:07:42.002Z,1.80
2018-09-30T00:10:12.275Z,1.60
2018-09-30T00:12:43.183Z,2.10
2018-09-30T00:15:13.228Z,1.70
2018-09-30T00:17:43.279Z,2.10
2018-09-30T00:20:13.013Z,2.10
2018-09-30T00:22:43.054Z,1.50
2018-09-30T00:25:17.560Z,1.80
2018-09-30T00:27:47.940Z,1.77
2018-09-30T00:30:17.517Z,2.20
2018-09-30T00:32:46.759Z,2.40
2018-09-30T00:35:17.191Z,2.30
2018-09-30T00:37:46.911Z,1.87
2018-09-30T00:40:17.743Z,1.83
2018-09-30T00:42:47.237Z,1.97
2018-09-30T00:45:17.120Z,2.47
2018-09-30T00:47:46.378Z,1.90
2018-09-30T00:50:15.718Z,2.13
2018-09-30T00:52:45.744Z,2.00
2018-09-30T00:55:15.257Z,2.10
2018-09-30T00:57:44.645Z,1.80
2018-09-30T01:00:14.034Z,1.70
2018-09-30T01:02:43.232Z,1.70
2018-09-30T01:05:12.469Z,1.83
2018-09-30T01:07:42.035Z,1.73
2018-09-30T01:10:11.244Z,2.10
2018-09-30T01:12:41.708Z,1.83
2018-09-30T01:15:11.386Z,2.37
2018-09-30T01:17:41.756Z,1.70
2018-09-30T01:20:11.752Z,1.90
2018-09-30T01:22:41.451Z,1.80
2018-09-30T01:25:10.920Z,1.70
2018-09-30T01:27:40.450Z,1.93
2018-09-30T01:30:11.360Z,1.90
2018-09-30T01:32:45.581Z,1.30
2018-09-30T01:35:15.139Z,1.77
2018-09-30T01:37:44.390Z,1.50
2018-09-30T01:40:13.996Z,1.67
2018-09-30T01:42:43.259Z,1.63
2018-09-30T01:45:12.651Z,1.57
2018-09-30T01:47:42.396Z,1.87
2018-09-30T01:50:12.023Z,1.33
2018-09-30T01:52:52.394Z,2.10
2018-09-30T01:55:23.166Z,1.47
2018-09-30T01:57:52.895Z,1.63
2018-09-30T02:00:23.095Z,1.60
2018-09-30T02:02:53.579Z,2.20
2018-09-30T02:05:25.048Z,1.97
2018-09-30T02:07:55.582Z,2.10
2018-09-30T02:10:26.158Z,1.60
2018-09-30T02:12:55.413Z,1.70
2018-09-30T02:15:25.399Z,1.90
2018-09-30T02:17:55.554Z,1.63
2018-09-30T02:20:26.467Z,1.90
2018-09-30T02:22:56.600Z,2.00
2018-09-30T02:25:26.560Z,1.60
2018-09-30T02:27:55.740Z,1.70
2018-09-30T02:30:25.028Z,1.60
2018-09-30T02:32:54.931Z,1.47
2018-09-30T02:35:24.880Z,1.40
2018-09-30T02:37:55.013Z,1.43
2018-09-30T02:40:24.479Z,2.10
2018-09-30T02:42:53.837Z,1.77
2018-09-30T02:45:23.394Z,1.57
2018-09-30T02:47:53.389Z,1.80
2018-09-30T02:50:23.927Z,1.50
2018-09-30T02:52:54.676Z,1.83
2018-09-30T02:55:24.919Z,1.67
2018-09-30T02:57:54.736Z,2.03
2018-09-30T03:00:24.457Z,1.43
2018-09-30T03:02:53.868Z,2.10
2018-09-30T03:05:29.168Z,2.10
2018-09-30T03:08:03.777Z,1.70
2018-09-30T03:10:33.463Z,2.10
2018-09-30T03:13:02.723Z,1.77
2018-09-30T03:15:32.076Z,1.97
2018-09-30T03:18:06.147Z,1.80
2018-09-30T03:20:35.564Z,1.60
2018-09-30T03:23:05.510Z,1.70
2018-09-30T03:25:35.450Z,1.83
2018-09-30T03:28:04.819Z,1.47
2018-09-30T03:30:34.578Z,1.93
2018-09-30T03:33:04.877Z,2.03
2018-09-30T03:35:36.045Z,2.30
2018-09-30T03:38:05.354Z,1.80
2018-09-30T03:40:36.069Z,2.17
2018-09-30T03:43:06.179Z,1.93
2018-09-30T03:45:36.291Z,1.90
2018-09-30T03:48:06.081Z,1.70
2018-09-30T03:50:36.330Z,1.70
2018-09-30T03:53:05.921Z,1.90
2018-09-30T03:55:35.397Z,1.70
2018-09-30T03:58:05.532Z,1.90
2018-09-30T04:03:24.981Z,2.03
2018-09-30T04:05:55.362Z,2.10
2018-09-30T04:08:24.660Z,2.17
2018-09-30T04:10:57.235Z,2.00
2018-09-30T04:13:26.879Z,2.10
2018-09-30T04:15:56.385Z,2.07
2018-09-30T04:18:29.891Z,2.07
2018-09-30T04:21:00.164Z,1.80
2018-09-30T04:23:30.143Z,1.40
2018-09-30T04:25:59.594Z,1.87
2018-09-30T04:28:28.943Z,2.07
2018-09-30T04:30:58.946Z,1.87
2018-09-30T04:33:28.171Z,2.13
2018-09-30T04:35:58.102Z,2.27
2018-09-30T04:38:27.818Z,2.20
2018-09-30T04:40:57.277Z,1.70
2018-09-30T04:43:27.351Z,2.23
2018-09-30T04:45:57.825Z,2.07
2018-09-30T04:48:27.099Z,2.00
2018-09-30T04:50:57.216Z,2.83
2018-09-30T04:53:26.667Z,2.07
2018-09-30T04:55:56.063Z,2.50
2018-09-30T04:58:25.490Z,2.33
2018-09-30T05:00:55.319Z,2.00
2018-09-30T05:03:24.749Z,2.00
2018-09-30T05:05:54.166Z,2.17
2018-09-30T05:08:23.886Z,2.17
2018-09-30T05:10:53.273Z,2.30
2018-09-30T05:13:22.590Z,2.07
2018-09-30T05:15:52.238Z,2.03
2018-09-30T05:18:21.598Z,2.70
2018-09-30T05:20:51.418Z,2.40
2018-09-30T05:23:21.040Z,2.10
2018-09-30T05:25:50.738Z,2.13
2018-09-30T05:28:20.205Z,2.03
2018-09-30T05:30:49.939Z,1.97
2018-09-30T05:33:19.338Z,2.43
2018-09-30T05:35:49.670Z,1.97
2018-09-30T05:38:19.585Z,1.80
2018-09-30T05:40:49.735Z,2.60
2018-09-30T05:43:19.666Z,1.87
2018-09-30T05:45:49.419Z,2.20
2018-09-30T05:48:18.989Z,2.00
2018-09-30T05:50:48.831Z,2.23
2018-09-30T05:53:18.625Z,2.40
2018-09-30T05:55:48.285Z,2.30
2018-09-30T05:58:17.878Z,3.03
2018-09-30T06:00:47.409Z,2.50
2018-09-30T06:03:17.030Z,1.90
2018-09-30T06:05:46.615Z,2.93
2018-09-30T06:08:16.445Z,2.03
2018-09-30T06:10:46.190Z,2.50
2018-09-30T06:13:15.514Z,2.40
2018-09-30T06:15:49.671Z,2.30
2018-09-30T06:18:19.350Z,2.80
2018-09-30T06:20:48.716Z,2.10
2018-09-30T06:23:18.631Z,2.27
2018-09-30T06:25:48.162Z,3.10
2018-09-30T06:28:18.530Z,2.20
2018-09-30T06:30:48.685Z,2.23
2018-09-30T06:33:18.227Z,3.30
2018-09-30T06:35:48.852Z,3.27
2018-09-30T06:38:18.779Z,2.33
2018-09-30T06:40:48.594Z,2.17
2018-09-30T06:43:18.481Z,2.40
2018-09-30T06:45:48.681Z,2.50
2018-09-30T06:48:18.296Z,2.27
2018-09-30T06:50:48.481Z,2.40
2018-09-30T06:53:18.795Z,2.43
2018-09-30T06:55:50.047Z,1.97
2018-09-30T06:58:20.836Z,2.40
2018-09-30T07:00:51.244Z,2.37
2018-09-30T07:03:20.916Z,2.97
2018-09-30T07:05:50.671Z,2.90
2018-09-30T07:08:20.409Z,3.07
2018-09-30T07:10:51.949Z,2.67
2018-09-30T07:13:22.178Z,2.47
2018-09-30T07:15:51.990Z,2.50
2018-09-30T07:18:23.246Z,2.70
2018-09-30T07:20:53.478Z,2.90
2018-09-30T07:23:23.201Z,2.30
2018-09-30T07:25:52.441Z,2.53
2018-09-30T07:28:23.044Z,2.50
2018-09-30T07:30:53.104Z,2.60
2018-09-30T07:33:23.736Z,2.40
2018-09-30T07:35:53.236Z,2.37
2018-09-30T07:38:24.026Z,2.50
2018-09-30T07:40:54.741Z,2.30
2018-09-30T07:43:24.526Z,3.03
2018-09-30T07:45:54.035Z,2.77
2018-09-30T07:48:28.711Z,2.47
2018-09-30T07:50:59.217Z,2.60
2018-09-30T07:53:29.632Z,2.73
2018-09-30T07:55:59.607Z,2.40
2018-09-30T07:58:29.179Z,2.57
2018-09-30T08:00:58.537Z,2.73
2018-09-30T08:03:28.885Z,2.77
2018-09-30T08:05:58.980Z,2.40
2018-09-30T08:08:30.229Z,2.60
2018-09-30T08:10:59.882Z,2.70
2018-09-30T08:13:29.883Z,2.80
2018-09-30T08:15:59.054Z,3.20
2018-09-30T08:18:29.624Z,2.20
2018-09-30T08:20:59.076Z,2.50
2018-09-30T08:23:28.865Z,2.60
2018-09-30T08:25:59.189Z,3.03
2018-09-30T08:28:28.844Z,2.27
2018-09-30T08:30:58.641Z,2.40
2018-09-30T08:33:27.957Z,2.40
2018-09-30T08:36:02.371Z,2.60
2018-09-30T08:38:34.128Z,2.97
2018-09-30T08:41:06.821Z,2.70
2018-09-30T08:43:37.725Z,2.67
2018-09-30T08:46:08.352Z,2.83
2018-09-30T08:48:38.081Z,2.60
2018-09-30T08:51:08.087Z,2.57
2018-09-30T08:53:37.878Z,2.67
2018-09-30T08:56:07.643Z,2.00
2018-09-30T08:58:37.264Z,2.30
2018-09-30T09:01:07.180Z,2.13
2018-09-30T09:03:37.926Z,2.70
2018-09-30T09:06:07.443Z,2.70
2018-09-30T09:08:41.329Z,2.07
2018-09-30T09:11:12.200Z,1.93
2018-09-30T09:13:42.125Z,3.07
2018-09-30T09:16:12.347Z,2.17
2018-09-30T09:18:43.420Z,2.73
2018-09-30T09:21:13.270Z,2.90
2018-09-30T09:23:42.967Z,2.87
2018-09-30T09:26:12.840Z,2.73
2018-09-30T09:28:43.158Z,2.20
2018-09-30T09:31:12.785Z,2.40
2018-09-30T09:33:43.084Z,2.37
2018-09-30T09:36:12.669Z,2.17
2018-09-30T09:38:42.091Z,2.20
2018-09-30T09:41:12.579Z,1.97
2018-09-30T09:43:42.965Z,2.30
2018-09-30T09:46:12.677Z,2.20
2018-09-30T09:48:42.226Z,2.03
2018-09-30T09:51:12.256Z,2.23
2018-09-30T09:53:42.320Z,2.37
2018-09-30T09:56:12.913Z,2.50
2018-09-30T09:58:42.506Z,2.70
2018-09-30T10:01:12.150Z,2.40
2018-09-30T10:03:42.408Z,2.80
2018-09-30T10:06:13.073Z,2.10
2018-09-30T10:08:43.382Z,2.37
2018-09-30T10:11:14.408Z,2.53
2018-09-30T10:13:48.536Z,2.73
2018-09-30T10:16:19.570Z,2.40
2018-09-30T10:18:49.915Z,2.23
2018-09-30T10:21:19.829Z,2.43
2018-09-30T10:23:50.212Z,2.23
2018-09-30T10:26:28.042Z,1.80
2018-09-30T10:28:58.311Z,2.40
2018-09-30T10:31:28.043Z,2.40
2018-09-30T10:33:57.424Z,2.40
2018-09-30T10:36:26.798Z,2.50
2018-09-30T10:38:56.725Z,2.30
2018-09-30T10:41:26.306Z,2.70
2018-09-30T10:43:55.996Z,2.27
2018-09-30T10:46:25.603Z,2.30
2018-09-30T10:48:55.645Z,2.10
2018-09-30T10:51:25.114Z,2.27
2018-09-30T10:53:54.936Z,2.10
2018-09-30T10:56:24.522Z,2.33
2018-09-30T10:58:54.484Z,2.43
2018-09-30T11:01:24.592Z,2.57
2018-09-30T11:03:54.442Z,2.47
2018-09-30T11:06:25.221Z,2.70
2018-09-30T11:08:54.855Z,2.30
2018-09-30T11:11:24.253Z,2.50
2018-09-30T11:13:54.957Z,2.00
2018-09-30T11:16:24.897Z,2.20
2018-09-30T11:18:55.460Z,2.53
2018-09-30T11:21:24.763Z,2.37
2018-09-30T11:23:54.890Z,2.47
2018-09-30T11:26:24.422Z,1.67
2018-09-30T11:28:53.828Z,2.23
2018-09-30T11:31:24.264Z,2.20
2018-09-30T11:33:53.542Z,1.70
2018-09-30T11:36:23.372Z,2.40
2018-09-30T11:38:53.077Z,2.30
2018-09-30T11:41:22.214Z,2.17
2018-09-30T11:43:52.015Z,2.43
2018-09-30T11:46:22.788Z,2.50
2018-09-30T11:48:54.176Z,2.40
2018-09-30T11:51:24.080Z,2.30
2018-09-30T11:53:53.705Z,2.30
2018-09-30T11:56:24.149Z,1.73
2018-09-30T11:58:53.415Z,2.20
2018-09-30T12:01:23.422Z,2.17
2018-09-30T12:03:52.573Z,2.07
2018-09-30T12:06:22.979Z,2.27
2018-09-30T12:08:52.562Z,2.03
2018-09-30T12:11:23.039Z,1.53
2018-09-30T12:13:52.763Z,1.60
2018-09-30T12:16:22.010Z,2.10
2018-09-30T12:18:52.282Z,2.13
2018-09-30T12:21:22.980Z,1.97
2018-09-30T12:23:53.012Z,1.70
2018-09-30T12:26:22.483Z,1.60
2018-09-30T12:28:51.993Z,1.43
2018-09-30T12:31:21.800Z,1.67
2018-09-30T12:33:52.405Z,1.50
2018-09-30T12:36:22.813Z,1.47
2018-09-30T12:38:52.241Z,1.80
2018-09-30T12:41:22.285Z,1.50
2018-09-30T12:43:51.915Z,1.33
2018-09-30T12:46:22.234Z,1.80
2018-09-30T12:48:52.024Z,1.70
2018-09-30T12:51:23.009Z,1.83
2018-09-30T12:53:52.153Z,1.73
2018-09-30T12:56:22.315Z,2.40
2018-09-30T12:58:53.682Z,1.80
2018-09-30T13:01:23.843Z,2.60
2018-09-30T13:03:53.482Z,2.50
2018-09-30T13:06:23.526Z,2.40
2018-09-30T13:08:54.056Z,2.37
2018-09-30T13:11:23.820Z,2.23
2018-09-30T13:13:53.558Z,2.20
2018-09-30T13:16:24.253Z,1.93
2018-09-30T13:18:54.087Z,2.20
2018-09-30T13:21:24.097Z,2.30
2018-09-30T13:23:54.820Z,3.07
2018-09-30T13:26:26.182Z,2.17
2018-09-30T13:28:56.359Z,3.03
2018-09-30T13:31:25.755Z,2.50
2018-09-30T13:33:55.632Z,2.73
2018-09-30T13:36:25.063Z,2.77
2018-09-30T13:38:54.338Z,2.73
2018-09-30T13:41:24.914Z,2.10
2018-09-30T13:43:54.586Z,3.20
2018-09-30T13:46:24.714Z,2.17
2018-09-30T13:48:54.425Z,2.20
2018-09-30T13:51:24.557Z,2.03
2018-09-30T13:53:54.070Z,2.17
2018-09-30T13:56:23.273Z,2.30
2018-09-30T13:58:53.059Z,5.70
2018-09-30T14:01:22.501Z,3.03
2018-09-30T14:03:51.627Z,3.30
2018-09-30T14:06:21.442Z,2.40
2018-09-30T14:08:50.981Z,2.60
2018-09-30T14:11:20.971Z,2.50
2018-09-30T14:13:50.588Z,2.60
2018-09-30T14:16:21.760Z,2.70
2018-09-30T14:18:51.550Z,2.37
2018-09-30T14:21:21.601Z,2.40
2018-09-30T14:23:51.072Z,2.30
2018-09-30T14:26:21.115Z,3.10
2018-09-30T14:28:51.460Z,2.63
2018-09-30T14:31:21.631Z,2.63
2018-09-30T14:33:51.799Z,2.40
2018-09-30T14:37:50.345Z,2.63
2018-09-30T14:40:20.033Z,2.63
2018-09-30T14:42:50.000Z,2.60
2018-09-30T14:45:19.751Z,2.47
2018-09-30T14:47:50.154Z,3.60
2018-09-30T14:50:19.471Z,2.50
2018-09-30T14:52:49.255Z,2.87
2018-09-30T14:55:18.712Z,2.20
2018-09-30T14:57:48.837Z,2.80
2018-09-30T15:00:18.715Z,2.37
2018-09-30T15:02:48.699Z,2.53
2018-09-30T15:05:18.372Z,2.30
2018-09-30T15:07:47.556Z,2.53
2018-09-30T15:10:17.445Z,2.73
2018-09-30T15:12:48.374Z,2.80
2018-09-30T15:15:22.682Z,2.50
2018-09-30T15:17:53.135Z,2.20
2018-09-30T15:20:22.388Z,2.53
2018-09-30T15:22:51.837Z,2.50
2018-09-30T15:25:21.488Z,2.80
2018-09-30T15:27:55.372Z,2.93
2018-09-30T15:30:25.068Z,2.63
2018-09-30T15:32:55.739Z,2.93
2018-09-30T15:35:25.969Z,3.03
2018-09-30T15:37:55.606Z,2.70
2018-09-30T15:40:26.241Z,2.50
2018-09-30T15:42:56.513Z,2.33
2018-09-30T15:45:25.735Z,2.30
2018-09-30T15:47:55.810Z,2.80
2018-09-30T15:50:25.756Z,2.80
2018-09-30T15:52:55.455Z,2.43
2018-09-30T15:55:26.417Z,2.07
2018-09-30T15:57:56.324Z,2.67
2018-09-30T16:00:25.838Z,2.07
2018-09-30T16:02:56.629Z,2.27
2018-09-30T16:05:28.045Z,2.30
2018-09-30T16:07:58.043Z,2.30
2018-09-30T16:10:28.395Z,2.07
2018-09-30T16:12:58.546Z,2.70
2018-09-30T16:15:29.046Z,2.13
2018-09-30T16:17:59.458Z,2.57
2018-09-30T16:20:29.424Z,1.70
2018-09-30T16:22:58.883Z,2.67
2018-09-30T16:25:28.414Z,2.00
2018-09-30T16:27:58.478Z,2.30
2018-09-30T16:30:28.455Z,2.50
2018-09-30T16:32:58.004Z,2.77
2018-09-30T16:35:27.587Z,2.43
2018-09-30T16:37:57.514Z,2.30
2018-09-30T16:40:27.212Z,2.10
2018-09-30T16:42:56.931Z,2.70
2018-09-30T16:45:26.547Z,2.57
2018-09-30T16:47:56.736Z,2.50
2018-09-30T16:50:26.485Z,2.77
2018-09-30T16:52:55.817Z,2.93
2018-09-30T16:55:25.745Z,2.40
2018-09-30T16:57:55.479Z,2.30
2018-09-30T17:00:25.735Z,2.53
2018-09-30T17:02:55.704Z,2.60
2018-09-30T17:05:25.281Z,2.53
2018-09-30T17:07:56.058Z,2.97
2018-09-30T17:10:26.193Z,2.30
2018-09-30T17:12:56.112Z,3.20
2018-09-30T17:15:25.590Z,2.77
2018-09-30T17:17:56.057Z,2.77
2018-09-30T17:20:26.455Z,3.23
2018-09-30T17:22:56.605Z,2.57
2018-09-30T17:25:26.902Z,2.63
2018-09-30T17:27:56.786Z,2.70
2018-09-30T17:30:26.063Z,3.00
2018-09-30T17:32:56.412Z,2.73
2018-09-30T17:35:26.987Z,3.27
2018-09-30T17:37:57.041Z,3.00
2018-09-30T17:40:27.126Z,3.10
2018-09-30T17:42:58.047Z,3.10
2018-09-30T17:45:27.878Z,2.97
2018-09-30T17:47:57.800Z,3.70
2018-09-30T17:50:28.235Z,3.00
2018-09-30T17:52:58.279Z,3.10
2018-09-30T17:55:27.776Z,3.30
2018-09-30T17:57:57.946Z,2.57
2018-09-30T18:00:29.166Z,2.30
2018-09-30T18:02:58.549Z,2.80
2018-09-30T18:05:28.400Z,2.70
2018-09-30T18:07:59.265Z,2.67
2018-09-30T18:10:28.830Z,3.40
2018-09-30T18:13:01.673Z,2.80
2018-09-30T18:15:31.490Z,2.90
2018-09-30T18:18:01.081Z,3.17
2018-09-30T18:20:30.349Z,3.43
2018-09-30T18:22:59.890Z,4.47
2018-09-30T18:25:29.518Z,3.33
2018-09-30T18:27:59.613Z,3.60
2018-09-30T18:30:30.636Z,3.50
2018-09-30T18:33:00.494Z,2.43
2018-09-30T18:35:30.193Z,3.80
2018-09-30T18:38:00.143Z,3.83
2018-09-30T18:40:35.280Z,3.80
2018-09-30T18:43:04.901Z,3.80
2018-09-30T18:45:35.719Z,2.83
2018-09-30T18:48:06.698Z,2.67
2018-09-30T18:50:36.507Z,2.73
2018-09-30T18:53:08.580Z,2.90
2018-09-30T18:55:38.343Z,2.80
2018-09-30T18:58:08.003Z,2.77
2018-09-30T19:00:42.395Z,2.80
2018-09-30T19:03:12.218Z,2.53
2018-09-30T19:05:42.701Z,2.57
2018-09-30T19:08:12.169Z,2.50
2018-09-30T19:10:42.220Z,3.33
2018-09-30T19:13:16.128Z,2.93
2018-09-30T19:15:45.662Z,3.13
2018-09-30T19:18:16.594Z,2.97
2018-09-30T19:20:46.458Z,3.50
2018-09-30T19:23:16.551Z,2.83
2018-09-30T19:25:46.465Z,2.87
2018-09-30T19:28:15.982Z,2.80
2018-09-30T19:30:45.606Z,3.57
2018-09-30T19:33:15.730Z,3.80
2018-09-30T19:35:45.478Z,3.17
2018-09-30T19:38:15.156Z,3.00
2018-09-30T19:40:44.605Z,3.40
2018-09-30T19:43:14.129Z,3.30
2018-09-30T19:45:44.637Z,3.43
2018-09-30T19:48:15.143Z,4.00
2018-09-30T19:50:45.357Z,3.83
2018-09-30T19:53:16.455Z,3.50
2018-09-30T19:55:46.196Z,3.60
2018-09-30T19:58:16.885Z,3.50
2018-09-30T20:00:48.467Z,3.43
2018-09-30T20:03:18.106Z,2.63
2018-09-30T20:05:48.333Z,2.93
2018-09-30T20:08:18.448Z,2.87
2018-09-30T20:10:48.568Z,3.33
2018-09-30T20:13:18.624Z,2.77
2018-09-30T20:15:48.160Z,2.97
2018-09-30T20:18:18.139Z,3.37
2018-09-30T20:20:48.719Z,2.70
2018-09-30T20:23:18.421Z,3.07
2018-09-30T20:25:50.437Z,3.60
2018-09-30T20:28:22.728Z,3.20
2018-09-30T20:30:53.616Z,3.00
2018-09-30T20:33:24.939Z,3.00
2018-09-30T20:35:54.926Z,3.00
2018-09-30T20:38:24.820Z,3.50
2018-09-30T20:40:54.273Z,3.20
2018-09-30T20:43:25.103Z,3.30
2018-09-30T20:45:55.296Z,3.37
2018-09-30T20:48:26.954Z,3.33
2018-09-30T20:50:56.941Z,2.93
2018-09-30T20:53:26.759Z,2.97
2018-09-30T20:56:01.750Z,3.63
2018-09-30T20:58:34.622Z,2.97
2018-09-30T21:01:04.631Z,3.37
2018-09-30T21:03:34.035Z,3.07
2018-09-30T21:06:29.249Z,2.90
2018-09-30T21:14:46.026Z,2.97
2018-09-30T21:17:15.187Z,2.70
2018-09-30T21:19:45.156Z,3.07
2018-09-30T21:22:14.928Z,2.97
2018-09-30T21:24:44.113Z,2.60
2018-09-30T21:27:14.235Z,2.57
2018-09-30T21:29:43.917Z,2.90
2018-09-30T21:32:13.901Z,3.20
2018-09-30T21:34:44.965Z,2.70
2018-09-30T21:37:14.596Z,3.03
2018-09-30T21:39:43.952Z,3.07
2018-09-30T21:42:13.289Z,2.30
2018-09-30T21:44:43.298Z,3.00
2018-09-30T21:47:12.591Z,2.23
2018-09-30T21:49:42.397Z,2.50
2018-09-30T21:52:12.808Z,2.87
2018-09-30T21:54:42.160Z,2.50
2018-09-30T21:57:11.275Z,3.00
2018-09-30T21:59:41.629Z,3.03
2018-09-30T22:02:10.569Z,2.40
2018-09-30T22:04:40.483Z,2.67
2018-09-30T22:07:10.227Z,2.40
2018-09-30T22:09:39.878Z,2.30
2018-09-30T22:12:09.102Z,1.90
2018-09-30T22:14:38.623Z,2.53
2018-09-30T22:17:12.005Z,1.67
2018-09-30T22:19:41.705Z,1.77
2018-09-30T22:22:11.838Z,2.03
2018-09-30T22:24:41.382Z,1.67
2018-09-30T22:27:12.895Z,1.60
2018-09-30T22:29:42.328Z,2.20
2018-09-30T22:32:12.387Z,1.80
2018-09-30T22:34:41.934Z,1.80
2018-09-30T22:37:12.365Z,1.90
2018-09-30T22:39:41.557Z,1.83
2018-09-30T22:42:18.832Z,1.67
2018-09-30T22:44:48.501Z,1.60
2018-09-30T22:47:17.986Z,1.90
2018-09-30T22:49:47.343Z,2.17
2018-09-30T22:52:26.438Z,2.00
2018-09-30T22:54:56.243Z,1.90
2018-09-30T22:57:25.625Z,2.10
2018-09-30T22:59:55.392Z,2.37
2018-09-30T23:02:24.628Z,2.27
2018-09-30T23:04:54.014Z,2.20
2018-09-30T23:07:23.642Z,1.93
2018-09-30T23:09:52.818Z,2.53
2018-09-30T23:12:22.048Z,2.43
2018-09-30T23:14:53.168Z,2.77
2018-09-30T23:17:24.002Z,2.17
2018-09-30T23:19:54.841Z,2.30
2018-09-30T23:22:24.268Z,2.30
2018-09-30T23:24:53.226Z,2.37
2018-09-30T23:27:22.736Z,2.17
2018-09-30T23:29:53.625Z,2.40
2018-09-30T23:32:23.590Z,2.40
2018-09-30T23:34:53.115Z,2.43
2018-09-30T23:37:24.366Z,2.50
2018-09-30T23:39:54.625Z,2.10
2018-09-30T23:42:24.537Z,2.77
2018-09-30T23:44:53.682Z,2.30
2018-09-30T23:47:26.831Z,2.30
2018-09-30T23:49:56.074Z,2.67
2018-09-30T23:52:26.409Z,2.20
2018-09-30T23:54:57.404Z,2.50
2018-09-30T23:57:26.927Z,2.60
2018-09-30T23:59:56.277Z,2.83
